sensor_id;sensor_type;location;lat;lon;timestamp;pressure;altitude;pressure_sealevel;temperature;humidity
55679;BME280;41573;51.446;-2.018;2023-02-14T13:27:32;99007.31;;;10.98;100.00
55679;BME280;41573;51.446;-2.018;2023-02-14T13:30:28;99003.13;;;11.06;100.00
55679;BME280;41573;51.446;-2.018;2023-02-14T13:33:33;99008.22;;;11.18;100.00
55679;BME280;41573;51.446;-2.018;2023-02-14T13:39:41;99021.19;;;11.43;100.00
55679;BME280;41573;51.446;-2.018;2023-02-14T13:42:10;99067.28;;;11.54;100.00
55679;BME280;41573;51.446;-2.018;2023-02-14T13:44:52;99120.31;;;11.58;100.00
55679;BME280;41573;51.446;-2.018;2023-02-14T13:56:31;99205.84;;;11.66;100.00
55679;BME280;41573;51.446;-2.018;2023-02-14T13:59:09;99217.28;;;11.56;100.00
55679;BME280;41573;51.446;-2.018;2023-02-14T14:01:51;99199.91;;;11.62;100.00
55679;BME280;41573;51.446;-2.018;2023-02-14T14:09:53;99187.53;;;11.61;100.00
55679;BME280;41573;51.446;-2.018;2023-02-14T14:15:13;99218.44;;;11.64;100.00
55679;BME280;41573;51.446;-2.018;2023-02-14T14:20:43;99233.66;;;11.73;100.00
55679;BME280;41573;51.446;-2.018;2023-02-14T14:23:31;99251.50;;;11.82;100.00
55679;BME280;41573;51.446;-2.018;2023-02-14T14:26:44;99262.19;;;11.82;100.00
55679;BME280;41573;51.446;-2.018;2023-02-14T14:43:12;99320.88;;;12.03;100.00
55679;BME280;41573;51.446;-2.018;2023-02-14T14:45:46;99334.69;;;12.09;100.00
55679;BME280;41573;51.446;-2.018;2023-02-14T14:48:12;99332.19;;;12.17;100.00
55679;BME280;41573;51.446;-2.018;2023-02-14T14:50:43;99351.41;;;12.41;100.00
55679;BME280;41573;51.446;-2.018;2023-02-14T14:53:44;99352.41;;;13.01;100.00
55679;BME280;41573;51.446;-2.018;2023-02-14T14:56:19;99410.59;;;13.77;100.00
55679;BME280;41573;51.446;-2.018;2023-02-14T14:58:45;99503.53;;;14.24;100.00
55679;BME280;41573;51.446;-2.018;2023-02-14T15:01:13;99554.63;;;14.89;100.00
55679;BME280;41573;51.446;-2.018;2023-02-14T15:03:51;99535.03;;;15.54;100.00
55679;BME280;41573;51.446;-2.018;2023-02-14T15:06:19;99603.31;;;16.15;100.00
55679;BME280;41573;51.446;-2.018;2023-02-14T15:08:45;99705.59;;;16.50;100.00
55679;BME280;41573;51.446;-2.018;2023-02-14T15:11:22;99792.88;;;16.74;100.00
55679;BME280;41573;51.446;-2.018;2023-02-14T15:14:14;99834.06;;;17.20;100.00
55679;BME280;41573;51.446;-2.018;2023-02-14T15:16:47;99871.09;;;17.62;100.00
55679;BME280;41573;51.446;-2.018;2023-02-14T15:22:00;99957.94;;;18.00;100.00
55679;BME280;41573;51.446;-2.018;2023-02-14T15:24:26;99566.19;;;18.19;100.00
55679;BME280;41573;51.446;-2.018;2023-02-14T15:26:52;99703.09;;;17.81;100.00
55679;BME280;41573;51.446;-2.018;2023-02-14T15:29:25;99765.69;;;17.31;100.00
55679;BME280;41573;51.446;-2.018;2023-02-14T15:31:51;99780.09;;;16.58;100.00
55679;BME280;41573;51.446;-2.018;2023-02-14T15:34:21;99726.56;;;16.18;100.00
55679;BME280;41573;51.446;-2.018;2023-02-14T15:36:48;99696.34;;;15.89;100.00
55679;BME280;41573;51.446;-2.018;2023-02-14T15:39:17;99675.19;;;15.38;100.00
55679;BME280;41573;51.446;-2.018;2023-02-14T15:41:47;99672.44;;;14.81;100.00
55679;BME280;41573;51.446;-2.018;2023-02-14T15:44:23;99603.88;;;14.29;100.00
55679;BME280;41573;51.446;-2.018;2023-02-14T15:46:54;99562.28;;;13.86;100.00
55679;BME280;41573;51.446;-2.018;2023-02-14T15:49:25;99521.09;;;13.48;100.00
55679;BME280;41573;51.446;-2.018;2023-02-14T15:51:54;99490.28;;;13.13;100.00
55679;BME280;41573;51.446;-2.018;2023-02-14T15:56:56;99432.63;;;12.70;100.00
55679;BME280;41573;51.446;-2.018;2023-02-14T15:59:25;99423.25;;;12.54;100.00
55679;BME280;41573;51.446;-2.018;2023-02-14T16:02:00;99426.84;;;12.44;100.00
55679;BME280;41573;51.446;-2.018;2023-02-14T16:04:31;99428.13;;;12.39;100.00
55679;BME280;41573;51.446;-2.018;2023-02-14T16:07:20;99429.84;;;12.50;100.00
55679;BME280;41573;51.446;-2.018;2023-02-14T16:09:46;99455.44;;;12.53;100.00
55679;BME280;41573;51.446;-2.018;2023-02-14T16:12:34;99469.81;;;12.62;100.00
55679;BME280;41573;51.446;-2.018;2023-02-14T16:15:17;99480.34;;;12.84;100.00
55679;BME280;41573;51.446;-2.018;2023-02-14T16:17:43;99510.03;;;12.91;100.00
55679;BME280;41573;51.446;-2.018;2023-02-14T16:20:26;99517.88;;;12.83;100.00
55679;BME280;41573;51.446;-2.018;2023-02-14T16:23:20;99527.00;;;12.80;100.00
55679;BME280;41573;51.446;-2.018;2023-02-14T16:25:48;99523.91;;;12.75;100.00
55679;BME280;41573;51.446;-2.018;2023-02-14T16:28:14;99532.22;;;12.61;100.00
55679;BME280;41573;51.446;-2.018;2023-02-14T16:30:40;99533.28;;;12.48;100.00
55679;BME280;41573;51.446;-2.018;2023-02-14T16:33:19;99533.28;;;12.27;100.00
55679;BME280;41573;51.446;-2.018;2023-02-14T16:35:47;99533.72;;;12.11;100.00
55679;BME280;41573;51.446;-2.018;2023-02-14T16:38:17;99538.84;;;11.92;100.00
55679;BME280;41573;51.446;-2.018;2023-02-14T16:40:50;99529.69;;;11.73;100.00
55679;BME280;41573;51.446;-2.018;2023-02-14T16:43:18;99529.25;;;11.56;100.00
55679;BME280;41573;51.446;-2.018;2023-02-14T16:45:44;99524.06;;;11.44;100.00
55679;BME280;41573;51.446;-2.018;2023-02-14T16:48:10;99525.66;;;11.35;100.00
55679;BME280;41573;51.446;-2.018;2023-02-14T16:50:38;99519.25;;;11.26;100.00
55679;BME280;41573;51.446;-2.018;2023-02-14T16:53:13;99514.78;;;11.15;100.00
55679;BME280;41573;51.446;-2.018;2023-02-14T16:55:43;99522.50;;;11.07;100.00
55679;BME280;41573;51.446;-2.018;2023-02-14T16:58:08;99524.97;;;10.99;100.00
55679;BME280;41573;51.446;-2.018;2023-02-14T17:00:34;99539.50;;;10.95;100.00
55679;BME280;41573;51.446;-2.018;2023-02-14T17:03:00;99554.50;;;10.84;100.00
55679;BME280;41573;51.446;-2.018;2023-02-14T17:05:34;99559.44;;;10.78;100.00
55679;BME280;41573;51.446;-2.018;2023-02-14T17:08:01;99565.22;;;10.72;100.00
55679;BME280;41573;51.446;-2.018;2023-02-14T17:10:27;99565.13;;;10.62;100.00
55679;BME280;41573;51.446;-2.018;2023-02-14T17:12:56;99569.78;;;10.47;100.00
55679;BME280;41573;51.446;-2.018;2023-02-14T17:15:23;99590.19;;;10.35;100.00
55679;BME280;41573;51.446;-2.018;2023-02-14T17:17:51;99595.69;;;10.21;100.00
55679;BME280;41573;51.446;-2.018;2023-02-14T17:20:19;99606.47;;;10.06;100.00
55679;BME280;41573;51.446;-2.018;2023-02-14T17:22:46;99597.59;;;9.94;100.00
55679;BME280;41573;51.446;-2.018;2023-02-14T17:25:12;99594.88;;;9.83;100.00
55679;BME280;41573;51.446;-2.018;2023-02-14T17:27:38;99583.22;;;9.73;100.00
55679;BME280;41573;51.446;-2.018;2023-02-14T17:30:08;99565.72;;;9.57;100.00
55679;BME280;41573;51.446;-2.018;2023-02-14T17:32:34;99547.56;;;9.51;100.00
55679;BME280;41573;51.446;-2.018;2023-02-14T17:34:59;99533.75;;;9.46;100.00
55679;BME280;41573;51.446;-2.018;2023-02-14T17:37:27;99488.91;;;9.41;100.00
55679;BME280;41573;51.446;-2.018;2023-02-14T17:39:53;99463.00;;;9.32;100.00
55679;BME280;41573;51.446;-2.018;2023-02-14T17:42:19;99450.28;;;9.24;100.00
55679;BME280;41573;51.446;-2.018;2023-02-14T17:44:45;99437.66;;;9.15;100.00
55679;BME280;41573;51.446;-2.018;2023-02-14T17:47:10;99433.63;;;9.09;100.00
55679;BME280;41573;51.446;-2.018;2023-02-14T17:49:36;99419.22;;;9.01;100.00
55679;BME280;41573;51.446;-2.018;2023-02-14T17:52:02;99423.16;;;8.95;100.00
55679;BME280;41573;51.446;-2.018;2023-02-14T17:54:27;99422.66;;;8.90;100.00
55679;BME280;41573;51.446;-2.018;2023-02-14T17:56:53;99425.75;;;8.84;100.00
55679;BME280;41573;51.446;-2.018;2023-02-14T17:59:21;99429.34;;;8.83;100.00
55679;BME280;41573;51.446;-2.018;2023-02-14T18:02:06;99423.66;;;8.76;100.00
55679;BME280;41573;51.446;-2.018;2023-02-14T18:04:35;99429.91;;;8.75;100.00
55679;BME280;41573;51.446;-2.018;2023-02-14T18:07:10;99441.59;;;8.72;100.00
